YWGN weather

Wagin Airport
Western Australia, Australia

Public forecast

Using degrees Celsius for public forecast. Weather courtesy of forecast.io.

Closest aviation weather report (METAR) to Wagin Airport

Closest report is Albany Airport, 99.1 nm (183.6 km) SSE. Retrieved 2020/01/26 23:30 UTC (0 seconds ago):

YABA 262330Z AUTO 33002KT 9999 // BKN004 16/16 Q1017

Closest aviation forecast (TAF) to Wagin Airport

Closest forecast is Perth Jandakot Airport, 105.5 nm (195.5 km) NW. Retrieved 2020/01/26 18:00 UTC (5 hours ago):

TAF YPJT 261705Z 2618/2712 16008KT CAVOK FM261900 10010KT CAVOK FM270400 23014KT CAVOK FM271000 19008KT CAVOK